Time;durP1;ratioP1;P1;durP2;ratioP2;P2;SDS_P1;SDS_P2;PMS_P1;PMS_P2;Temp;Humidity;BMP_temperature;BMP_pressure;BME280_temperature;BME280_humidity;BME280_pressure;Samples;Min_cycle;Max_cycle;Signal;HPM_P1;HPM_P2
2021/06/27 00:01:12;;;;;;;2.33;0.80;;;;;;;;;;3577916;40;20456;-66
2021/06/27 00:03:39;;;;;;;1.25;0.80;;;;;;;;;;3584427;40;20391;-65
2021/06/27 00:06:06;;;;;;;3.38;0.80;;;;;;;;;;3577955;40;20409;-65
2021/06/27 00:08:32;;;;;;;3.20;0.88;;;;;;;;;;3577151;40;20404;-65
2021/06/27 00:10:59;;;;;;;1.88;0.80;;;;;;;;;;3587179;40;20396;-65
2021/06/27 00:13:25;;;;;;;1.53;0.80;;;;;;;;;;3586049;40;20404;-65
2021/06/27 00:15:52;;;;;;;1.00;0.65;;;;;;;;;;3585779;40;20413;-65
2021/06/27 00:18:19;;;;;;;1.48;0.70;;;;;;;;;;3587337;40;20916;-64
2021/06/27 00:20:48;;;;;;;1.20;0.60;;;;;;;;;;3587209;40;20489;-65
2021/06/27 00:23:15;;;;;;;1.63;0.73;;;;;;;;;;3586949;40;20794;-64
2021/06/27 00:25:42;;;;;;;2.58;0.60;;;;;;;;;;3587223;40;20370;-65
2021/06/27 00:28:09;;;;;;;1.98;0.70;;;;;;;;;;3587226;40;20463;-64
2021/06/27 00:30:38;;;;;;;2.13;0.70;;;;;;;;;;3583745;40;20397;-65
2021/06/27 00:33:05;;;;;;;4.18;0.85;;;;;;;;;;3578449;40;20402;-65
2021/06/27 00:35:32;;;;;;;1.80;0.68;;;;;;;;;;3590764;40;20374;-65
2021/06/27 00:37:59;;;;;;;1.45;0.70;;;;;;;;;;3587127;40;20379;-65
2021/06/27 00:40:26;;;;;;;1.85;0.80;;;;;;;;;;3579959;40;20414;-65
2021/06/27 00:42:53;;;;;;;2.60;1.13;;;;;;;;;;3586593;40;20414;-65
2021/06/27 00:45:20;;;;;;;1.50;0.70;;;;;;;;;;3583067;40;20391;-64
2021/06/27 00:47:47;;;;;;;2.83;0.77;;;;;;;;;;3586986;40;20755;-66
2021/06/27 00:50:14;;;;;;;1.83;0.70;;;;;;;;;;3581279;40;20397;-65
2021/06/27 00:52:40;;;;;;;1.92;0.80;;;;;;;;;;3589978;40;20389;-64
2021/06/27 00:55:08;;;;;;;1.92;1.00;;;;;;;;;;3580406;40;20522;-65
2021/06/27 00:57:35;;;;;;;1.92;0.85;;;;;;;;;;3584746;40;20385;-64
2021/06/27 01:00:01;;;;;;;2.00;0.70;;;;;;;;;;3588606;40;20442;-65
2021/06/27 01:02:27;;;;;;;1.08;0.65;;;;;;;;;;3577480;40;20743;-70
2021/06/27 01:04:53;;;;;;;1.75;0.80;;;;;;;;;;3598326;23;20779;-65
2021/06/27 01:07:19;;;;;;;2.80;0.70;;;;;;;;;;3563538;40;20410;-65
2021/06/27 01:09:46;;;;;;;4.00;0.70;;;;;;;;;;3564011;40;20385;-65
2021/06/27 01:12:13;;;;;;;2.42;0.73;;;;;;;;;;3566215;40;20398;-65
2021/06/27 01:14:40;;;;;;;2.07;0.90;;;;;;;;;;3563465;40;20405;-65
2021/06/27 01:17:06;;;;;;;1.10;0.70;;;;;;;;;;3565633;40;20770;-65
2021/06/27 01:19:32;;;;;;;1.35;0.60;;;;;;;;;;3565462;40;20695;-65
2021/06/27 01:22:00;;;;;;;2.90;0.70;;;;;;;;;;3566717;40;20372;-66
2021/06/27 01:24:27;;;;;;;1.60;0.68;;;;;;;;;;3566780;40;20476;-66
2021/06/27 01:26:53;;;;;;;3.03;0.73;;;;;;;;;;3566338;40;20417;-65
2021/06/27 01:29:19;;;;;;;2.03;0.77;;;;;;;;;;3566275;40;20404;-65
2021/06/27 01:31:46;;;;;;;1.27;0.70;;;;;;;;;;3566682;40;20386;-65
2021/06/27 01:34:12;;;;;;;2.00;0.73;;;;;;;;;;3566270;40;20730;-65
2021/06/27 01:36:38;;;;;;;3.30;0.98;;;;;;;;;;3566044;40;20426;-66
2021/06/27 01:39:06;;;;;;;1.60;0.70;;;;;;;;;;3566253;40;20374;-66
2021/06/27 01:41:32;;;;;;;2.10;0.90;;;;;;;;;;3565776;40;20382;-66
2021/06/27 01:43:58;;;;;;;2.28;0.68;;;;;;;;;;3567389;40;20720;-66
2021/06/27 01:46:25;;;;;;;2.50;0.70;;;;;;;;;;3566770;40;20467;-67
2021/06/27 01:48:51;;;;;;;0.75;0.60;;;;;;;;;;3563839;40;20410;-67
2021/06/27 01:51:17;;;;;;;3.40;0.88;;;;;;;;;;3563637;40;20405;-65
2021/06/27 01:53:43;;;;;;;1.70;0.83;;;;;;;;;;3564314;40;20394;-66
2021/06/27 01:56:11;;;;;;;1.17;0.50;;;;;;;;;;3565915;40;20385;-66
2021/06/27 01:58:39;;;;;;;1.40;0.80;;;;;;;;;;3568721;40;20487;-66
2021/06/27 02:01:07;;;;;;;1.63;0.70;;;;;;;;;;3570278;40;20429;-66
2021/06/27 02:03:33;;;;;;;1.25;0.85;;;;;;;;;;3564488;40;20406;-66
2021/06/27 02:06:00;;;;;;;2.35;0.73;;;;;;;;;;3572432;40;20471;-66
2021/06/27 02:08:30;;;;;;;1.33;0.80;;;;;;;;;;3567031;40;20400;-66
2021/06/27 02:10:56;;;;;;;2.40;0.85;;;;;;;;;;3577187;40;20384;-66
2021/06/27 02:13:24;;;;;;;1.00;0.70;;;;;;;;;;3570327;40;20444;-67
2021/06/27 02:15:50;;;;;;;1.50;0.80;;;;;;;;;;3576455;40;20384;-67
2021/06/27 02:18:21;;;;;;;1.00;0.70;;;;;;;;;;3576230;40;20394;-67
2021/06/27 02:20:48;;;;;;;1.58;0.70;;;;;;;;;;3576231;40;20371;-67
2021/06/27 02:23:14;;;;;;;1.63;0.70;;;;;;;;;;3576530;40;20380;-65
2021/06/27 02:25:40;;;;;;;1.80;0.80;;;;;;;;;;3576071;40;20400;-64
2021/06/27 02:28:07;;;;;;;1.13;0.70;;;;;;;;;;3576228;40;20450;-66
2021/06/27 02:30:34;;;;;;;2.30;0.90;;;;;;;;;;3576016;40;20364;-64
2021/06/27 02:33:01;;;;;;;1.85;0.70;;;;;;;;;;3576157;40;20469;-66
2021/06/27 02:35:27;;;;;;;1.38;0.90;;;;;;;;;;3567551;40;20473;-66
2021/06/27 02:37:53;;;;;;;1.27;0.80;;;;;;;;;;3575886;40;20387;-65
2021/06/27 02:40:19;;;;;;;2.30;0.70;;;;;;;;;;3573146;40;20392;-67
2021/06/27 02:42:46;;;;;;;1.40;0.90;;;;;;;;;;3580960;40;20400;-64
2021/06/27 02:45:12;;;;;;;1.90;0.70;;;;;;;;;;3576092;40;20372;-64
2021/06/27 02:47:41;;;;;;;1.63;0.90;;;;;;;;;;3574059;40;20398;-64
2021/06/27 02:50:09;;;;;;;1.23;0.70;;;;;;;;;;3576229;40;20395;-65
2021/06/27 02:52:35;;;;;;;2.45;0.70;;;;;;;;;;3574825;40;20419;-65
2021/06/27 02:55:01;;;;;;;3.45;1.10;;;;;;;;;;3570716;40;20408;-65
2021/06/27 02:57:27;;;;;;;2.10;0.80;;;;;;;;;;3567538;40;20482;-66
2021/06/27 02:59:54;;;;;;;1.98;0.90;;;;;;;;;;3576127;40;20760;-65
2021/06/27 03:02:20;;;;;;;1.75;0.70;;;;;;;;;;3578558;40;20372;-65
2021/06/27 03:04:47;;;;;;;1.50;0.70;;;;;;;;;;3575560;40;20463;-65
2021/06/27 03:07:14;;;;;;;1.98;0.70;;;;;;;;;;3573765;40;20415;-65
2021/06/27 03:09:40;;;;;;;1.48;0.70;;;;;;;;;;3575758;40;20752;-65
2021/06/27 03:12:06;;;;;;;1.48;0.70;;;;;;;;;;3575911;40;20474;-65
2021/06/27 03:14:33;;;;;;;1.77;0.82;;;;;;;;;;3575959;40;20742;-65
2021/06/27 03:16:59;;;;;;;1.92;0.80;;;;;;;;;;3573221;40;20395;-65
2021/06/27 03:19:25;;;;;;;1.70;0.70;;;;;;;;;;3574864;40;20400;-65
2021/06/27 03:21:52;;;;;;;2.42;0.80;;;;;;;;;;3568813;40;20396;-64
2021/06/27 03:24:19;;;;;;;2.38;0.80;;;;;;;;;;3573229;40;20389;-65
2021/06/27 03:26:45;;;;;;;1.77;0.82;;;;;;;;;;3575102;40;20372;-65
2021/06/27 03:29:11;;;;;;;3.28;0.80;;;;;;;;;;3574498;40;20376;-65
2021/06/27 03:31:38;;;;;;;1.60;0.67;;;;;;;;;;3575637;40;20388;-65
2021/06/27 03:34:04;;;;;;;1.53;1.13;;;;;;;;;;3575616;40;20380;-65
2021/06/27 03:36:31;;;;;;;3.40;0.95;;;;;;;;;;3566542;40;20772;-64
2021/06/27 03:39:07;;;;;;;2.25;0.73;;;;;;;;;;3566415;40;20660;-65
2021/06/27 03:41:39;;;;;;;1.25;0.80;;;;;;;;;;3575886;40;20387;-65
2021/06/27 03:44:05;;;;;;;1.27;0.75;;;;;;;;;;3555381;40;20438;-65
2021/06/27 03:46:31;;;;;;;2.40;0.80;;;;;;;;;;3558362;40;20385;-65
2021/06/27 03:48:58;;;;;;;2.70;0.93;;;;;;;;;;3560543;40;20385;-65
2021/06/27 03:51:24;;;;;;;2.25;0.93;;;;;;;;;;3551722;40;20427;-65
2021/06/27 03:53:50;;;;;;;1.13;0.80;;;;;;;;;;3559910;40;20411;-64
2021/06/27 03:56:18;;;;;;;2.53;0.90;;;;;;;;;;3548181;40;20416;-65
2021/06/27 03:58:45;;;;;;;2.08;0.80;;;;;;;;;;3549201;40;20422;-65
2021/06/27 04:01:11;;;;;;;2.73;0.80;;;;;;;;;;3557207;40;20743;-65
2021/06/27 04:03:37;;;;;;;3.17;1.10;;;;;;;;;;3555906;40;20410;-65
2021/06/27 04:06:04;;;;;;;1.00;0.80;;;;;;;;;;3546958;40;20407;-66
2021/06/27 04:08:30;;;;;;;2.47;0.90;;;;;;;;;;3555448;40;20465;-65
2021/06/27 04:10:59;;;;;;;2.53;1.27;;;;;;;;;;3559157;40;20393;-65
2021/06/27 04:13:28;;;;;;;1.90;0.90;;;;;;;;;;3561043;40;20393;-65
2021/06/27 04:15:54;;;;;;;2.35;0.90;;;;;;;;;;3575122;40;20407;-65
2021/06/27 04:18:21;;;;;;;1.15;0.75;;;;;;;;;;3572465;40;20404;-65
2021/06/27 04:20:47;;;;;;;3.30;0.82;;;;;;;;;;3577251;40;20388;-64
2021/06/27 04:23:13;;;;;;;2.67;0.77;;;;;;;;;;3567705;40;20406;-65
2021/06/27 04:25:39;;;;;;;2.10;0.77;;;;;;;;;;3568958;40;20403;-65
2021/06/27 04:28:06;;;;;;;1.50;0.75;;;;;;;;;;3576759;40;20411;-66
2021/06/27 04:30:34;;;;;;;1.20;1.00;;;;;;;;;;3576862;40;20388;-65
2021/06/27 04:33:00;;;;;;;2.53;0.90;;;;;;;;;;3576883;40;20384;-65
2021/06/27 04:35:27;;;;;;;1.33;0.90;;;;;;;;;;3576759;40;20367;-64
2021/06/27 04:37:53;;;;;;;0.95;0.80;;;;;;;;;;3568286;40;20618;-64
2021/06/27 04:40:19;;;;;;;2.33;0.73;;;;;;;;;;3576226;40;20400;-65
2021/06/27 04:42:46;;;;;;;1.90;1.00;;;;;;;;;;3575543;40;20816;-64
2021/06/27 04:45:13;;;;;;;1.33;0.90;;;;;;;;;;3576964;40;20371;-65
2021/06/27 04:47:40;;;;;;;1.70;0.85;;;;;;;;;;3576878;40;20376;-65
2021/06/27 04:50:07;;;;;;;2.03;0.63;;;;;;;;;;3575600;40;20474;-65
2021/06/27 04:52:33;;;;;;;1.38;0.93;;;;;;;;;;3577008;40;20394;-65
2021/06/27 04:55:00;;;;;;;1.60;0.80;;;;;;;;;;3576694;40;20392;-65
2021/06/27 04:57:26;;;;;;;1.90;1.00;;;;;;;;;;3575076;40;20745;-65
2021/06/27 04:59:52;;;;;;;2.35;0.90;;;;;;;;;;3574025;40;20412;-65
2021/06/27 05:02:18;;;;;;;1.40;0.80;;;;;;;;;;3576695;40;20376;-65
2021/06/27 05:04:46;;;;;;;1.70;0.70;;;;;;;;;;3567632;40;20700;-65
2021/06/27 05:07:12;;;;;;;2.13;0.90;;;;;;;;;;3575137;40;20674;-65
2021/06/27 05:09:38;;;;;;;2.78;0.98;;;;;;;;;;3575122;40;20379;-65
2021/06/27 05:12:05;;;;;;;1.80;0.90;;;;;;;;;;3576826;40;20377;-65
2021/06/27 05:14:32;;;;;;;1.50;0.80;;;;;;;;;;3567777;40;20385;-65
2021/06/27 05:16:58;;;;;;;2.42;0.73;;;;;;;;;;3581638;40;20387;-65
2021/06/27 05:19:24;;;;;;;1.85;0.80;;;;;;;;;;3576556;40;20453;-65
2021/06/27 05:21:52;;;;;;;1.67;0.90;;;;;;;;;;3576677;40;20383;-65
2021/06/27 05:24:19;;;;;;;1.50;0.70;;;;;;;;;;3577683;40;20384;-64
2021/06/27 05:26:45;;;;;;;3.08;0.80;;;;;;;;;;3576384;40;20373;-65
2021/06/27 05:29:11;;;;;;;1.80;0.70;;;25.80;94.20;;;;;;3576448;40;20618;-64
2021/06/27 05:31:37;;;;;;;1.48;0.80;;;21.90;97.10;;;;;;3576553;40;20840;-64
2021/06/27 05:34:04;;;;;;;1.80;0.85;;;21.60;97.40;;;;;;3579637;40;20396;-65
2021/06/27 05:36:36;;;;;;;2.80;1.00;;;;;;;;;;3574088;40;20636;-64
2021/06/27 05:39:04;;;;;;;1.23;0.77;;;;;;;;;;3576216;40;20458;-65
2021/06/27 05:41:30;;;;;;;2.22;0.82;;;;;;;;;;3576440;40;20400;-65
2021/06/27 05:43:57;;;;;;;2.20;0.63;;;;;;;;;;3576413;40;20364;-65
2021/06/27 05:46:23;;;;;;;1.88;0.70;;;;;;;;;;3575421;40;20400;-65
2021/06/27 05:48:49;;;;;;;3.28;0.80;;;;;;;;;;3574476;40;20775;-65
2021/06/27 05:51:16;;;;;;;1.17;0.75;;;;;;;;;;3575906;40;20376;-65
2021/06/27 05:53:42;;;;;;;2.40;0.70;;;;;;;;;;3576742;40;20380;-65
2021/06/27 05:56:11;;;;;;;1.35;0.90;;;;;;;;;;3565707;40;20533;-64
2021/06/27 05:58:38;;;;;;;2.15;0.88;;;;;;;;;;3575684;40;20395;-65
2021/06/27 06:01:05;;;;;;;1.92;0.80;;;;;;;;;;3573403;40;20505;-64
2021/06/27 06:03:31;;;;;;;2.55;0.70;;;;;;;;;;3574339;40;20398;-64
2021/06/27 06:05:57;;;;;;;1.53;1.00;;;;;;;;;;3575781;40;20400;-65
2021/06/27 06:08:23;;;;;;;1.25;0.82;;;;;;;;;;3573784;40;20403;-64
2021/06/27 06:10:49;;;;;;;1.80;0.70;;;21.70;97.00;;;;;;3573875;40;20384;-64
2021/06/27 06:13:17;;;;;;;1.58;0.70;;;;;;;;;;3575554;40;20402;-64
2021/06/27 06:15:43;;;;;;;2.03;0.90;;;;;;;;;;3576346;40;20457;-64
2021/06/27 06:18:09;;;;;;;1.47;0.83;;;;;;;;;;3576319;40;20383;-65
2021/06/27 06:20:36;;;;;;;1.60;0.80;;;;;;;;;;3577452;40;20411;-64
2021/06/27 06:23:02;;;;;;;1.40;0.70;;;;;;;;;;3576316;40;20380;-65
2021/06/27 06:25:28;;;;;;;2.63;0.80;;;;;;;;;;3576246;40;20391;-64
2021/06/27 06:27:54;;;;;;;2.60;0.70;;;;;;;;;;3576291;40;20382;-64
2021/06/27 06:30:22;;;;;;;2.30;0.90;;;;;;;;;;3576104;40;20415;-64
2021/06/27 06:32:48;;;;;;;2.10;0.75;;;;;;;;;;3576056;40;20396;-64
2021/06/27 06:35:15;;;;;;;1.42;0.60;;;22.50;96.50;;;;;;3576161;40;20382;-64
2021/06/27 06:37:41;;;;;;;2.35;0.80;;;23.00;96.40;;;;;;3575830;40;20444;-64
2021/06/27 06:40:09;;;;;;;2.20;0.80;;;23.10;95.50;;;;;;3569939;40;20780;-64
2021/06/27 06:42:35;;;;;;;2.15;0.60;;;23.10;95.60;;;;;;3575082;40;20457;-64
2021/06/27 06:45:01;;;;;;;1.83;0.90;;;;;;;;;;3568871;40;20404;-64
2021/06/27 06:47:28;;;;;;;2.08;0.80;;;;;;;;;;3571130;40;20400;-64
2021/06/27 06:49:55;;;;;;;2.00;0.80;;;;;;;;;;3575920;40;20401;-64
2021/06/27 06:52:22;;;;;;;1.60;0.80;;;23.20;95.50;;;;;;3575996;40;20384;-64
2021/06/27 06:54:48;;;;;;;1.70;0.80;;;;;;;;;;3575957;40;20477;-64
2021/06/27 06:57:14;;;;;;;1.20;0.77;;;23.70;94.60;;;;;;3573135;40;20453;-64
2021/06/27 06:59:40;;;;;;;1.50;0.70;;;23.90;94.00;;;;;;3573510;40;20864;-64
2021/06/27 07:02:06;;;;;;;1.87;0.80;;;23.70;94.90;;;;;;3573384;40;20379;-64
2021/06/27 07:04:34;;;;;;;1.90;1.00;;;23.80;94.30;;;;;;3564426;40;20411;-64
2021/06/27 07:07:00;;;;;;;1.95;0.80;;;;;;;;;;3568056;40;20380;-64
2021/06/27 07:09:26;;;;;;;1.33;0.80;;;;;;;;;;3574919;40;20383;-64
2021/06/27 07:11:52;;;;;;;1.10;0.60;;;23.90;94.30;;;;;;3575921;40;20392;-64
2021/06/27 07:14:18;;;;;;;1.85;0.70;;;;;;;;;;3576040;40;20380;-64
2021/06/27 07:16:45;;;;;;;2.37;0.80;;;;;;;;;;3575823;40;20447;-64
2021/06/27 07:19:11;;;;;;;1.20;0.60;;;;;;;;;;3576170;40;20388;-64
2021/06/27 07:21:40;;;;;;;2.38;1.20;;;;;;;;;;3571333;40;20404;-64
2021/06/27 07:24:07;;;;;;;1.92;0.80;;;;;;;;;;3576498;40;20446;-64
2021/06/27 07:26:33;;;;;;;1.45;0.73;;;;;;;;;;3567951;40;20816;-65
2021/06/27 07:28:59;;;;;;;1.60;0.80;;;24.10;94.20;;;;;;3576262;40;20485;-65
2021/06/27 07:31:25;;;;;;;2.15;1.10;;;24.40;94.30;;;;;;3570912;40;20396;-64
2021/06/27 07:33:51;;;;;;;2.13;0.80;;;24.50;93.90;;;;;;3577080;40;20400;-65
2021/06/27 07:36:17;;;;;;;1.88;0.80;;;24.60;94.00;;;;;;3575402;40;20859;-65
2021/06/27 07:38:47;;;;;;;2.10;0.80;;;24.60;94.10;;;;;;3575127;40;20407;-65
2021/06/27 07:41:14;;;;;;;1.20;0.80;;;24.60;94.10;;;;;;3565656;40;20410;-64
2021/06/27 07:43:40;;;;;;;4.13;1.23;;;24.70;94.60;;;;;;3567130;40;20400;-65
2021/06/27 07:46:06;;;;;;;4.95;1.20;;;24.80;94.60;;;;;;3576945;40;20652;-65
2021/06/27 07:48:32;;;;;;;3.70;1.42;;;25.10;93.50;;;;;;3574465;40;20466;-65
2021/06/27 07:50:58;;;;;;;3.22;1.10;;;25.40;93.10;;;;;;3569729;40;20465;-65
2021/06/27 07:53:24;;;;;;;3.13;1.20;;;25.50;92.50;;;;;;3567798;40;20812;-65
2021/06/27 07:55:51;;;;;;;1.40;0.80;;;25.60;92.50;;;;;;3576441;40;20375;-65
2021/06/27 07:58:18;;;;;;;2.97;1.20;;;25.60;92.30;;;;;;3574116;40;20409;-65
2021/06/27 08:00:44;;;;;;;1.23;0.80;;;25.60;92.80;;;;;;3567170;40;20410;-65
2021/06/27 08:03:10;;;;;;;2.33;1.10;;;25.60;93.30;;;;;;3575147;40;20394;-65
2021/06/27 08:05:36;;;;;;;2.10;1.02;;;25.60;93.60;;;;;;3565040;40;20440;-65
2021/06/27 08:08:02;;;;;;;3.17;1.10;;;;;;;;;;3565410;40;20427;-65
2021/06/27 08:10:28;;;;;;;2.42;1.05;;;25.70;94.10;;;;;;3566278;40;20642;-65
2021/06/27 08:12:56;;;;;;;2.17;1.00;;;;;;;;;;3565534;40;20779;-64
2021/06/27 08:15:22;;;;;;;1.92;0.90;;;;;;;;;;3566033;40;20393;-64
2021/06/27 08:17:50;;;;;;;2.10;1.13;;;;;;;;;;3569084;40;20374;-65
2021/06/27 08:20:17;;;;;;;1.45;0.90;;;;;;;;;;3565452;40;20483;-65
2021/06/27 08:22:43;;;;;;;2.47;0.80;;;;;;;;;;3565840;40;20378;-65
2021/06/27 08:25:10;;;;;;;2.40;1.10;;;;;;;;;;3566554;40;20373;-65
2021/06/27 08:27:36;;;;;;;4.00;2.72;;;25.90;93.00;;;;;;3560853;40;20413;-65
2021/06/27 08:30:05;;;;;;;3.90;2.10;;;;;;;;;;3560563;40;20399;-65
2021/06/27 08:32:31;;;;;;;2.83;1.42;;;;;;;;;;3564181;40;20441;-65
2021/06/27 08:34:58;;;;;;;2.95;1.20;;;26.80;91.90;;;;;;3562581;40;20406;-65
2021/06/27 08:37:24;;;;;;;7.60;2.35;;;;;;;;;;3563818;40;20447;-65
2021/06/27 08:39:51;;;;;;;2.85;1.02;;;;;;;;;;3565707;40;20663;-65
2021/06/27 08:42:19;;;;;;;2.53;1.20;;;27.30;90.90;;;;;;3565212;40;20393;-66
2021/06/27 08:44:45;;;;;;;1.50;0.90;;;27.90;87.20;;;;;;3564970;40;20710;-65
2021/06/27 08:47:16;;;;;;;1.80;0.67;;;27.90;87.30;;;;;;3565725;40;20389;-66
2021/06/27 08:49:45;;;;;;;1.92;0.77;;;28.00;88.90;;;;;;3565249;40;20393;-65
2021/06/27 08:52:16;;;;;;;2.15;0.98;;;28.00;87.90;;;;;;3564455;40;20401;-65
2021/06/27 08:54:42;;;;;;;2.03;0.70;;;28.30;85.00;;;;;;3564135;40;20372;-66
2021/06/27 08:57:08;;;;;;;2.43;0.90;;;28.20;84.80;;;;;;3564719;40;20380;-65
2021/06/27 08:59:34;;;;;;;2.15;0.90;;;28.20;85.60;;;;;;3562799;40;20397;-66
2021/06/27 09:02:00;;;;;;;2.45;0.93;;;28.10;86.00;;;;;;3563786;40;20463;-66
2021/06/27 09:04:31;;;;;;;3.10;1.05;;;;;;;;;;3562728;40;20427;-66
2021/06/27 09:07:17;;;;;;;1.15;0.70;;;;;;;;;;3565028;40;20382;-66
2021/06/27 09:09:43;;;;;;;1.63;1.00;;;;;;;;;;3565606;40;20397;-66
2021/06/27 09:12:10;;;;;;;2.15;0.80;;;28.20;86.40;;;;;;3565112;40;20531;-67
2021/06/27 09:14:38;;;;;;;1.80;0.70;;;28.50;86.20;;;;;;3565965;40;20385;-71
2021/06/27 09:17:12;;;;;;;2.22;0.80;;;;;;;;;;3566740;40;20425;-69
2021/06/27 09:19:59;;;;;;;1.27;0.63;;;;;;;;;;3565939;40;20453;-70
2021/06/27 09:22:27;;;;;;;1.70;0.82;;;28.70;86.10;;;;;;3566649;40;20740;-72
2021/06/27 09:24:53;;;;;;;2.67;0.70;;;;;;;;;;3567225;40;20413;-74
2021/06/27 09:27:20;;;;;;;2.50;1.00;;;;;;;;;;3565604;40;20417;-73
2021/06/27 09:29:46;;;;;;;2.00;0.80;;;;;;;;;;3566975;40;20371;-73
2021/06/27 09:32:16;;;;;;;2.00;0.70;;;;;;;;;;3563869;40;20555;-73
2021/06/27 09:34:43;;;;;;;2.67;0.70;;;;;;;;;;3567100;40;20624;-73
2021/06/27 09:37:12;;;;;;;0.93;0.60;;;28.90;89.40;;;;;;3566974;40;20380;-73
2021/06/27 09:39:53;;;;;;;1.17;0.73;;;29.30;88.80;;;;;;3567095;40;20612;-72
2021/06/27 09:42:19;;;;;;;0.88;0.60;;;;;;;;;;3568062;40;20415;-73
2021/06/27 09:44:58;;;;;;;2.53;0.90;;;;;;;;;;3565827;40;20483;-73
2021/06/27 09:47:25;;;;;;;1.65;0.63;;;;;;;;;;3565922;40;20468;-72
2021/06/27 09:49:51;;;;;;;2.40;0.73;;;;;;;;;;3565928;40;20495;-72
2021/06/27 09:52:33;;;;;;;3.42;0.60;;;;;;;;;;3565653;40;20404;-72
2021/06/27 09:55:05;;;;;;;1.70;0.90;;;;;;;;;;3566847;40;20460;-73
2021/06/27 09:57:31;;;;;;;2.13;0.80;;;;;;;;;;3564470;40;20422;-73
2021/06/27 09:59:57;;;;;;;2.17;0.70;;;;;;;;;;3564021;40;20526;-72
2021/06/27 10:02:24;;;;;;;3.63;0.63;;;;;;;;;;3564151;40;20581;-72
2021/06/27 10:04:50;;;;;;;1.67;0.70;;;;;;;;;;3568374;40;20403;-72
2021/06/27 10:07:16;;;;;;;1.20;0.60;;;;;;;;;;3576478;40;20376;-72
2021/06/27 10:09:44;;;;;;;1.30;0.60;;;;;;;;;;3577209;40;20400;-73
2021/06/27 10:12:10;;;;;;;1.98;0.60;;;;;;;;;;3566401;40;20712;-72
2021/06/27 10:14:57;;;;;;;0.82;0.60;;;;;;;;;;3575432;40;20804;-72
2021/06/27 10:17:24;;;;;;;2.08;0.60;;;;;;;;;;3576096;40;20875;-72
2021/06/27 10:19:51;;;;;;;2.57;0.77;;;29.30;89.00;;;;;;3576295;40;20408;-72
2021/06/27 10:22:20;;;;;;;1.27;0.55;;;30.30;86.60;;;;;;3575567;40;20380;-72
2021/06/27 10:24:47;;;;;;;2.00;0.60;;;;;;;;;;3567106;40;20629;-72
2021/06/27 10:27:14;;;;;;;1.70;0.55;;;;;;;;;;3575542;40;20765;-72
2021/06/27 10:29:43;;;;;;;1.45;0.50;;;;;;;;;;3575243;40;20416;-71
2021/06/27 10:32:09;;;;;;;1.52;0.70;;;;;;;;;;3575051;40;20375;-71
2021/06/27 10:34:36;;;;;;;1.20;0.50;;;30.40;86.20;;;;;;3575601;40;20395;-71
2021/06/27 10:37:08;;;;;;;1.00;0.50;;;30.10;81.50;;;;;;3575651;40;20378;-71
2021/06/27 10:39:34;;;;;;;1.55;0.50;;;30.10;82.40;;;;;;3575269;40;20392;-70
2021/06/27 10:42:04;;;;;;;1.40;0.52;;;30.30;82.60;;;;;;3565913;40;20391;-70
2021/06/27 10:44:51;;;;;;;1.77;0.55;;;30.50;81.50;;;;;;3566148;40;20440;-70
2021/06/27 10:47:30;;;;;;;1.20;0.60;;;30.30;80.90;;;;;;3574485;40;20411;-70
2021/06/27 10:49:56;;;;;;;1.10;0.70;;;;;;;;;;3564731;40;20479;-70
2021/06/27 10:52:23;;;;;;;2.30;0.80;;;;;;;;;;3575367;40;20551;-70
2021/06/27 10:55:28;;;;;;;2.35;0.70;;;29.90;82.50;;;;;;3574585;40;20688;-70
2021/06/27 10:58:06;;;;;;;1.33;0.50;;;;;;;;;;3562238;40;20432;-71
2021/06/27 11:00:58;;;;;;;1.47;0.80;;;;;;;;;;3574176;40;20424;-71
2021/06/27 11:03:30;;;;;;;1.10;0.70;;;30.50;85.70;;;;;;3566790;40;20402;-71
2021/06/27 11:05:58;;;;;;;2.25;0.63;;;31.10;84.40;;;;;;3573530;40;20432;-71
2021/06/27 11:08:30;;;;;;;1.45;0.60;;;31.00;82.50;;;;;;3568057;40;20403;-71
2021/06/27 11:11:04;;;;;;;3.20;0.60;;;31.00;84.20;;;;;;3576019;40;20399;-70
2021/06/27 11:13:32;;;;;;;2.53;0.73;;;31.10;84.50;;;;;;3574291;40;20376;-71
2021/06/27 11:16:19;;;;;;;2.35;0.60;;;30.80;80.50;;;;;;3565010;40;20664;-73
2021/06/27 11:18:48;;;;;;;1.23;0.60;;;30.60;83.10;;;;;;3576672;40;21525;-70
2021/06/27 11:21:24;;;;;;;1.53;0.77;;;30.80;84.30;;;;;;3575512;40;20380;-70
2021/06/27 11:23:58;;;;;;;2.87;0.80;;;31.10;84.00;;;;;;3574767;40;20380;-70
2021/06/27 11:26:43;;;;;;;1.23;0.70;;;;;;;;;;3575371;40;20380;-70
2021/06/27 11:29:28;;;;;;;1.98;0.70;;;;;;;;;;3565828;40;20392;-70
2021/06/27 11:32:42;;;;;;;2.43;0.80;;;31.20;83.70;;;;;;3575146;40;20375;-70
2021/06/27 11:35:09;;;;;;;1.92;0.43;;;31.20;80.20;;;;;;3575081;40;20395;-70
2021/06/27 11:37:46;;;;;;;1.42;0.60;;;31.10;80.50;;;;;;3574737;40;20376;-70
2021/06/27 11:40:13;;;;;;;1.83;0.60;;;31.20;83.20;;;;;;3573714;40;20497;-70
2021/06/27 11:42:49;;;;;;;2.10;0.53;;;31.30;78.20;;;;;;3567457;40;20822;-70
2021/06/27 11:45:41;;;;;;;1.50;0.60;;;31.40;78.60;;;;;;3575213;40;20491;-70
2021/06/27 11:48:09;;;;;;;1.92;0.60;;;31.50;79.30;;;;;;3574073;40;20457;-69
2021/06/27 11:50:37;;;;;;;2.22;0.80;;;31.40;76.90;;;;;;3575078;40;20368;-69
2021/06/27 11:53:05;;;;;;;1.33;0.50;;;31.30;76.60;;;;;;3575129;40;20384;-70
2021/06/27 11:55:33;;;;;;;2.28;0.60;;;31.20;78.40;;;;;;3574961;40;20374;-69
2021/06/27 11:58:00;;;;;;;1.10;0.50;;;31.30;79.00;;;;;;3574103;40;20477;-70
2021/06/27 12:00:36;;;;;;;0.90;0.63;;;31.30;78.00;;;;;;3573397;40;20484;-69
2021/06/27 12:03:04;;;;;;;2.03;0.70;;;31.30;77.80;;;;;;3574878;40;20527;-69
2021/06/27 12:05:32;;;;;;;1.63;0.50;;;31.40;79.10;;;;;;3573505;40;20497;-69
2021/06/27 12:08:07;;;;;;;1.63;0.70;;;31.50;78.90;;;;;;3574592;40;20435;-70
2021/06/27 12:10:34;;;;;;;1.20;0.63;;;31.60;79.20;;;;;;3575716;40;20470;-70
2021/06/27 12:13:02;;;;;;;2.05;0.55;;;31.50;79.40;;;;;;3576846;40;20420;-69
2021/06/27 12:15:34;;;;;;;1.30;0.63;;;31.30;80.00;;;;;;3576026;40;20757;-68
2021/06/27 12:18:03;;;;;;;1.77;0.60;;;31.10;79.60;;;;;;3573444;40;20416;-69
2021/06/27 12:20:33;;;;;;;1.63;0.65;;;31.30;77.90;;;;;;3567697;40;20505;-70
2021/06/27 12:23:01;;;;;;;2.95;0.82;;;31.20;83.20;;;;;;3576096;40;20384;-69
2021/06/27 12:25:29;;;;;;;2.30;0.90;;;31.20;81.10;;;;;;3576007;40;20380;-69
2021/06/27 12:27:57;;;;;;;1.47;0.60;;;31.20;80.90;;;;;;3576136;40;20398;-68
2021/06/27 12:30:45;;;;;;;1.15;0.60;;;31.10;79.00;;;;;;3575368;40;20392;-69
2021/06/27 12:33:13;;;;;;;1.77;0.63;;;31.50;79.10;;;;;;3575527;40;20380;-69
2021/06/27 12:35:43;;;;;;;1.85;0.70;;;31.70;78.50;;;;;;3576020;40;20398;-69
2021/06/27 12:38:10;;;;;;;2.00;0.50;;;32.00;79.00;;;;;;3575140;40;20382;-67
2021/06/27 12:40:41;;;;;;;2.55;0.68;;;31.50;90.40;;;;;;3566579;40;20412;-70
2021/06/27 12:43:27;;;;;;;1.60;0.80;;;32.40;88.80;;;;;;3575658;40;20399;-69
2021/06/27 12:46:17;;;;;;;1.20;0.50;;;31.90;78.20;;;;;;3563783;40;20493;-69
2021/06/27 12:48:45;;;;;;;1.73;0.70;;;32.00;79.00;;;;;;3576283;40;20485;-70
2021/06/27 12:51:25;;;;;;;1.27;0.50;;;32.20;86.60;;;;;;3568853;40;20384;-70
2021/06/27 12:54:07;;;;;;;2.67;0.80;;;32.20;86.90;;;;;;3575959;40;20720;-70
2021/06/27 12:56:50;;;;;;;1.30;0.60;;;32.00;90.60;;;;;;3574759;40;20396;-70
2021/06/27 12:59:20;;;;;;;1.50;0.70;;;32.00;83.90;;;;;;3573624;40;20375;-69
2021/06/27 13:02:03;;;;;;;1.20;0.60;;;32.00;75.10;;;;;;3575557;40;20673;-71
2021/06/27 13:04:32;;;;;;;1.17;0.52;;;32.00;74.10;;;;;;3575628;40;20415;-71
2021/06/27 13:07:01;;;;;;;2.10;0.60;;;32.00;74.20;;;;;;3558605;40;20415;-70
2021/06/27 13:09:28;;;;;;;2.97;0.70;;;32.10;75.50;;;;;;3576763;40;20781;-69
2021/06/27 13:12:12;;;;;;;2.10;0.60;;;32.10;77.70;;;;;;3575405;40;20485;-69
2021/06/27 13:14:40;;;;;;;1.20;0.70;;;32.10;74.70;;;;;;3565931;40;20670;-69
2021/06/27 13:17:09;;;;;;;2.00;0.77;;;32.20;75.60;;;;;;3575391;40;20395;-70
2021/06/27 13:19:36;;;;;;;3.35;1.00;;;32.10;74.20;;;;;;3566978;40;20481;-70
2021/06/27 13:22:11;;;;;;;2.10;0.73;;;32.00;76.20;;;;;;3574022;40;20773;-70
2021/06/27 13:24:57;;;;;;;0.90;0.70;;;31.80;76.60;;;;;;3576676;40;20364;-69
2021/06/27 13:27:23;;;;;;;3.05;0.70;;;31.70;77.80;;;;;;3575914;40;20739;-69
2021/06/27 13:30:09;;;;;;;1.45;0.63;;;31.90;77.90;;;;;;3578180;40;21733;-69
2021/06/27 13:32:35;;;;;;;1.77;0.60;;;31.90;76.90;;;;;;3565670;40;20537;-69
2021/06/27 13:35:01;;;;;;;1.27;0.68;;;31.90;75.00;;;;;;3570006;40;20408;-69
2021/06/27 13:37:50;;;;;;;1.05;0.60;;;31.80;75.80;;;;;;3567466;40;20411;-69
2021/06/27 13:40:16;;;;;;;3.00;1.08;;;31.60;77.00;;;;;;3558902;40;20396;-69
2021/06/27 13:42:42;;;;;;;2.73;0.90;;;31.50;77.70;;;;;;3574795;40;20518;-70
2021/06/27 13:45:09;;;;;;;1.33;0.70;;;31.40;78.10;;;;;;3574452;40;20392;-69
2021/06/27 13:47:35;;;;;;;1.55;0.90;;;31.20;78.50;;;;;;3570689;40;20404;-70
2021/06/27 13:50:01;;;;;;;2.70;0.70;;;31.10;80.20;;;;;;3576493;40;20375;-69
2021/06/27 13:52:27;;;;;;;2.15;0.70;;;31.30;79.40;;;;;;3576520;40;20395;-70
2021/06/27 13:54:55;;;;;;;2.25;0.90;;;31.40;78.30;;;;;;3575319;40;20467;-70
2021/06/27 13:57:21;;;;;;;1.35;0.70;;;31.70;77.80;;;;;;3573733;40;20889;-70
2021/06/27 13:59:47;;;;;;;3.47;0.80;;;31.70;77.80;;;;;;3576510;40;20380;-70
2021/06/27 14:02:13;;;;;;;2.80;0.80;;;31.70;77.50;;;;;;3576395;40;20380;-69
2021/06/27 14:04:39;;;;;;;1.20;0.70;;;31.60;77.10;;;;;;3572224;40;20534;-69